createdAt,value
2024-02-11T00:01:19.702Z,4.82
2024-02-11T00:05:02.013Z,4.57
2024-02-11T00:08:44.275Z,4.47
2024-02-11T00:12:26.530Z,4.85
2024-02-11T00:16:11.182Z,5.32
2024-02-11T00:19:53.435Z,4.83
2024-02-11T00:23:38.828Z,5.45
2024-02-11T00:27:22.839Z,4.80
2024-02-11T00:31:05.199Z,5.00
2024-02-11T00:34:47.204Z,5.13
2024-02-11T00:38:29.255Z,4.85
2024-02-11T00:42:11.248Z,5.00
2024-02-11T00:45:53.366Z,5.40
2024-02-11T00:49:35.752Z,5.32
2024-02-11T00:53:17.896Z,5.88
2024-02-11T00:56:59.953Z,5.00
2024-02-11T01:00:45.832Z,5.38
2024-02-11T01:04:28.287Z,5.00
2024-02-11T01:08:14.310Z,5.37
2024-02-11T01:11:59.105Z,4.75
2024-02-11T01:15:41.214Z,5.35
2024-02-11T01:19:23.252Z,4.60
2024-02-11T01:23:05.440Z,4.80
2024-02-11T01:26:49.493Z,4.60
2024-02-11T01:30:31.554Z,4.85
2024-02-11T01:34:13.674Z,4.97
2024-02-11T01:37:55.700Z,4.57
2024-02-11T01:41:38.961Z,5.15
2024-02-11T01:45:20.924Z,3.93
2024-02-11T01:49:06.338Z,4.15
2024-02-11T01:52:49.330Z,4.32
2024-02-11T01:56:33.023Z,4.33
2024-02-11T02:00:16.749Z,4.57
2024-02-11T02:03:59.799Z,4.80
2024-02-11T02:07:42.083Z,4.22
2024-02-11T02:11:24.147Z,4.17
2024-02-11T02:15:09.587Z,4.03
2024-02-11T02:18:54.201Z,4.20
2024-02-11T02:22:36.549Z,3.83
2024-02-11T02:26:18.905Z,4.90
2024-02-11T02:30:00.973Z,4.15
2024-02-11T02:33:44.968Z,3.97
2024-02-11T02:37:27.079Z,4.93
2024-02-11T02:41:09.119Z,4.00
2024-02-11T02:44:51.480Z,4.47
2024-02-11T02:48:33.575Z,4.23
2024-02-11T02:52:15.696Z,4.00
2024-02-11T02:55:57.845Z,4.25
2024-02-11T02:59:40.261Z,3.77
2024-02-11T03:03:22.536Z,4.28
2024-02-11T03:07:04.773Z,4.55
2024-02-11T03:10:46.812Z,4.37
2024-02-11T03:14:32.402Z,4.80
2024-02-11T03:18:14.844Z,5.00
2024-02-11T03:21:56.845Z,4.40
2024-02-11T03:25:40.163Z,4.07
2024-02-11T03:29:22.265Z,4.55
2024-02-11T03:33:04.638Z,4.25
2024-02-11T03:36:46.732Z,5.00
2024-02-11T03:40:29.469Z,4.80
2024-02-11T03:44:11.566Z,4.68
2024-02-11T03:47:53.762Z,5.23
2024-02-11T03:51:35.928Z,5.10
2024-02-11T03:55:18.129Z,5.45
2024-02-11T03:59:00.132Z,4.47
2024-02-11T04:02:42.952Z,4.80
2024-02-11T04:06:25.043Z,5.25
2024-02-11T04:10:20.707Z,4.03
2024-02-11T04:14:03.764Z,4.47
2024-02-11T04:17:50.434Z,4.35
2024-02-11T04:21:36.654Z,4.68
2024-02-11T04:25:22.100Z,4.57
2024-02-11T04:29:04.144Z,4.20
2024-02-11T04:32:47.200Z,4.40
2024-02-11T04:36:31.341Z,4.78
2024-02-11T04:40:14.070Z,4.60
2024-02-11T04:43:57.449Z,4.90
2024-02-11T04:47:42.377Z,4.45
2024-02-11T04:51:26.070Z,5.00
2024-02-11T04:55:08.683Z,5.05
2024-02-11T04:58:51.529Z,5.25
2024-02-11T05:02:35.678Z,4.90
2024-02-11T05:06:25.037Z,4.85
2024-02-11T05:10:07.762Z,5.10
2024-02-11T05:13:49.684Z,5.22
2024-02-11T05:17:31.805Z,4.53
2024-02-11T05:21:14.574Z,4.85
2024-02-11T05:24:58.376Z,4.82
2024-02-11T05:28:41.703Z,5.03
2024-02-11T05:32:23.851Z,5.00
2024-02-11T05:36:09.589Z,5.32
2024-02-11T05:39:52.108Z,5.37
2024-02-11T05:43:34.086Z,5.63
2024-02-11T05:47:16.436Z,5.47
2024-02-11T05:50:59.040Z,5.90
2024-02-11T05:54:41.964Z,5.97
2024-02-11T05:58:24.270Z,6.90
2024-02-11T06:02:07.546Z,7.10
2024-02-11T06:05:50.700Z,7.80
2024-02-11T06:09:32.819Z,7.65
2024-02-11T06:13:14.923Z,8.18
2024-02-11T06:16:57.096Z,7.47
2024-02-11T06:20:40.931Z,8.57
2024-02-11T06:24:25.915Z,8.77
2024-02-11T06:28:07.993Z,8.77
2024-02-11T06:31:54.325Z,8.53
2024-02-11T06:35:36.413Z,9.10
2024-02-11T06:39:19.833Z,9.02
2024-02-11T06:43:02.043Z,9.90
2024-02-11T06:46:45.527Z,10.50
2024-02-11T06:50:27.763Z,10.02
2024-02-11T06:54:09.918Z,9.97
2024-02-11T06:57:53.314Z,10.07
2024-02-11T07:01:35.414Z,10.93
2024-02-11T07:05:18.280Z,10.82
2024-02-11T07:09:00.503Z,10.23
2024-02-11T07:12:43.385Z,10.00
2024-02-11T07:16:29.430Z,10.20
2024-02-11T07:20:17.043Z,9.40
2024-02-11T07:23:59.864Z,9.27
2024-02-11T07:27:41.916Z,9.63
2024-02-11T07:31:24.162Z,9.37
2024-02-11T07:35:08.829Z,8.95
2024-02-11T07:38:52.919Z,9.43
2024-02-11T07:42:34.892Z,9.50
2024-02-11T07:46:17.505Z,8.77
2024-02-11T07:50:00.255Z,8.52
2024-02-11T07:53:42.988Z,8.20
2024-02-11T07:57:27.840Z,8.67
2024-02-11T08:01:09.993Z,8.30
2024-02-11T08:04:51.994Z,8.52
2024-02-11T08:08:35.171Z,7.93
2024-02-11T08:12:17.489Z,7.38
2024-02-11T08:16:23.779Z,8.68
2024-02-11T08:20:07.249Z,7.82
2024-02-11T08:23:49.724Z,7.40
2024-02-11T08:27:35.361Z,6.80
2024-02-11T08:31:17.460Z,5.80
2024-02-11T08:34:59.531Z,6.03
2024-02-11T08:38:53.260Z,6.55
2024-02-11T08:42:35.740Z,6.43
2024-02-11T08:46:17.937Z,7.40
2024-02-11T08:50:12.773Z,8.10
2024-02-11T08:53:55.470Z,8.55
2024-02-11T08:57:38.475Z,7.70
2024-02-11T09:01:24.433Z,7.77
2024-02-11T09:05:06.761Z,8.48
2024-02-11T09:08:49.972Z,7.93
2024-02-11T09:13:04.099Z,7.38
2024-02-11T09:16:47.142Z,6.77
2024-02-11T09:20:37.574Z,7.18
2024-02-11T09:24:20.059Z,7.82
2024-02-11T09:28:02.485Z,7.07
2024-02-11T09:31:53.507Z,6.90
2024-02-11T09:35:36.075Z,6.63
2024-02-11T09:39:18.384Z,6.00
2024-02-11T09:47:04.579Z,4.82
2024-02-11T09:51:08.937Z,4.53
2024-02-11T09:54:53.509Z,5.37
2024-02-11T10:02:42.302Z,4.57
2024-02-11T10:10:25.047Z,4.70
2024-02-11T10:14:15.513Z,4.88
2024-02-11T10:18:13.046Z,4.90
2024-02-11T10:22:06.144Z,4.50
2024-02-11T10:26:08.904Z,3.70
2024-02-11T10:29:55.125Z,3.67
2024-02-11T10:33:59.016Z,3.97
2024-02-11T10:37:55.363Z,3.63
2024-02-11T10:41:49.187Z,3.05
2024-02-11T10:45:43.453Z,2.88
2024-02-11T10:49:46.302Z,4.05
2024-02-11T10:53:37.569Z,3.50
2024-02-11T11:11:34.783Z,2.42
2024-02-11T11:19:33.630Z,2.88
2024-02-11T11:28:31.737Z,3.25
2024-02-11T11:32:30.237Z,3.45
2024-02-11T11:36:25.979Z,3.20
2024-02-11T11:40:53.776Z,5.45
2024-02-11T11:44:54.733Z,3.80
2024-02-11T11:48:47.471Z,4.57
2024-02-11T11:52:48.416Z,3.78
2024-02-11T11:56:41.399Z,4.17
2024-02-11T12:00:37.476Z,4.82
2024-02-11T12:04:38.167Z,4.88
2024-02-11T12:08:34.649Z,5.03
2024-02-11T12:12:25.120Z,4.82
2024-02-11T12:16:26.123Z,3.88
2024-02-11T12:20:21.548Z,4.30
2024-02-11T12:29:55.052Z,3.80
2024-02-11T12:34:26.796Z,3.72
2024-02-11T12:38:22.561Z,4.20
2024-02-11T12:42:49.262Z,4.10
2024-02-11T12:46:48.810Z,4.15
2024-02-11T13:03:09.566Z,4.07
2024-02-11T13:15:31.608Z,4.03
2024-02-11T13:23:30.920Z,4.80
2024-02-11T13:27:24.557Z,5.38
2024-02-11T13:31:26.246Z,5.25
2024-02-11T13:35:47.710Z,6.03
2024-02-11T13:39:48.161Z,8.80
2024-02-11T13:47:41.422Z,6.37
2024-02-11T13:51:34.194Z,8.15
2024-02-11T13:55:31.288Z,7.03
2024-02-11T14:00:07.790Z,5.45
2024-02-11T14:03:57.787Z,5.82
2024-02-11T17:00:14.803Z,1.30
2024-02-11T17:09:03.022Z,2.33
2024-02-11T20:48:10.437Z,2.97
2024-02-11T20:57:08.494Z,2.87
2024-02-11T21:01:08.406Z,2.95
2024-02-11T21:14:11.515Z,2.20
2024-02-11T21:19:03.319Z,1.55
2024-02-11T21:27:06.133Z,1.87
2024-02-11T21:31:53.585Z,2.70
2024-02-11T21:36:23.545Z,2.28
2024-02-11T21:46:17.530Z,2.10
2024-02-11T21:49:51.029Z,2.08
2024-02-11T21:54:29.671Z,2.37
2024-02-11T21:58:22.921Z,2.50
2024-02-11T22:09:22.396Z,2.17
2024-02-11T22:21:31.207Z,1.67
2024-02-11T22:30:48.118Z,1.98
2024-02-11T22:34:31.026Z,2.47
2024-02-11T22:38:13.154Z,2.30
2024-02-11T22:41:55.372Z,2.90
2024-02-11T22:45:37.568Z,2.38
2024-02-11T22:49:23.422Z,1.92
2024-02-11T22:53:05.507Z,1.97
2024-02-11T22:56:48.213Z,2.00
2024-02-11T23:00:33.771Z,2.05
2024-02-11T23:04:15.973Z,1.80
2024-02-11T23:07:58.341Z,1.92
2024-02-11T23:11:41.739Z,1.75
2024-02-11T23:15:23.686Z,1.73
2024-02-11T23:19:08.886Z,2.00
2024-02-11T23:22:51.404Z,2.05
2024-02-11T23:26:35.130Z,2.35
2024-02-11T23:30:18.174Z,1.67
2024-02-11T23:34:01.633Z,2.08
2024-02-11T23:37:44.305Z,1.83
2024-02-11T23:41:26.486Z,1.97
2024-02-11T23:45:10.607Z,2.10
2024-02-11T23:48:53.026Z,1.73
2024-02-11T23:52:36.175Z,2.40
2024-02-11T23:56:18.244Z,2.13
